Etusivu
METAR-TAF:

METAR-TAF

Lentoasemat :

Bella Bella, Brittiläinen Kolumbia, Kanada

Leveyspiiri: 52-11-06N, Pituuspiiri: 128-09-24W, korkeus merenpinnasta: 43 m

Tämänhetkinen sää

Tämä raportti tehtiin 28 tuntia ja 7 minuuttia sitten, kello 15.00 UTC
tyyntä
Lämpötila -8°C
Kosteus 85%
Ilmanpaine 1023 hPa
Näkyvyys: 14.5 km
Muutamia pilviä 21000 ft:n korkeudessa

METAR: CBBC 201500Z AUTO 00000KT 9SM FEW210 M08/M10 A3022 RMK SLP238

Aika: 11:07 (19:07 UTC)

Sääennuste

Tämä raportti tehtiin 29 tuntia ja 29 minuuttia sitten, kello 13.38 UTC
Ennuste voimassa 20. päivästä klo 14 UTC - 21. päivään klo 02 UTC
Tuuli 3 kn eri suunnista
Näkyvyys: 10 km
Muutamia pilviä 8000 ft:n korkeudessa

TAF: CBBC 201338Z 2014/2102 VRB03KT P6SM FEW080 RMK FCST BASED ON AUTO OBS. NXT FCST BY 201900Z

Säähavainnot ja -ennusteet yli 4000 lentoasemalta (METAR- ja TAF-raportit).

Käytössä olevat sääasemat on merkitty karttaan keltaisilla ja punaisilla pisteillä.

Aseta hiiri pisteen päälle nähdäksesi sääaseman nimen.

Klikkaa sitten nähdäksesi säähavainnot ja -ennusteet.

Kartan vaihtaminen: klikkaa mustalla rastilla varustettuja vihreitä pisteitä, niin voit zoomata sisään; viivalla varustettua vihreää pistettä, niin voit zoomata ulos tai vihreitä nuolia, niin pääset viereisille kartoille.


METAR-TAF: